Terminal Aerodrome Forecast
Issued by NWS

Home | Current Version | Previous Version | Text Only | Print | Product List | Glossary On
Versions: 1 2 3 4 5 6 7 8 9 10 11 12 13 14 15 16 17 18 19
586
FTUS43 KPAH 260520
TAFCGI
TAF
KCGI 260520Z 2606/2706 18011KT P6SM SCT060 BKN250 WS020/20040KT
     FM260900 17013G21KT P6SM BKN035
     FM261100 18014G22KT 5SM -DZ BKN015
     FM262100 18014G24KT P6SM BKN050
     FM270200 18015G25KT P6SM VCTS OVC025CB PROB30 2702/2706 3SM
      TSRA OVC009CB=

USA.gov is the U.S. government's official web portal to all federal, state and local government web resources and services.